sensor_id;sensor_type;location;lat;lon;timestamp;P1;durP1;ratioP1;P2;durP2;ratioP2
18443;SDS011;9350;53.176;8.194;2023-11-21T00:00:07;23.15;;;8.20;;
18443;SDS011;9350;53.176;8.194;2023-11-21T00:02:38;27.40;;;7.45;;
18443;SDS011;9350;53.176;8.194;2023-11-21T00:05:06;23.05;;;7.45;;
18443;SDS011;9350;53.176;8.194;2023-11-21T00:07:34;21.27;;;7.07;;
18443;SDS011;9350;53.176;8.194;2023-11-21T00:10:01;16.08;;;6.65;;
18443;SDS011;9350;53.176;8.194;2023-11-21T00:12:30;18.40;;;6.72;;
18443;SDS011;9350;53.176;8.194;2023-11-21T00:14:57;26.23;;;7.45;;
18443;SDS011;9350;53.176;8.194;2023-11-21T00:17:23;17.25;;;6.93;;
18443;SDS011;9350;53.176;8.194;2023-11-21T00:19:51;17.73;;;6.65;;
18443;SDS011;9350;53.176;8.194;2023-11-21T00:22:18;14.40;;;6.82;;
18443;SDS011;9350;53.176;8.194;2023-11-21T00:24:45;19.52;;;6.50;;
18443;SDS011;9350;53.176;8.194;2023-11-21T00:27:13;23.73;;;7.60;;
18443;SDS011;9350;53.176;8.194;2023-11-21T00:29:39;17.48;;;6.75;;
18443;SDS011;9350;53.176;8.194;2023-11-21T00:32:06;17.23;;;6.43;;
18443;SDS011;9350;53.176;8.194;2023-11-21T00:34:34;16.25;;;6.97;;
18443;SDS011;9350;53.176;8.194;2023-11-21T00:37:02;15.57;;;6.55;;
18443;SDS011;9350;53.176;8.194;2023-11-21T00:39:29;18.85;;;6.63;;
18443;SDS011;9350;53.176;8.194;2023-11-21T00:41:55;24.20;;;6.75;;
18443;SDS011;9350;53.176;8.194;2023-11-21T00:44:22;21.38;;;7.57;;
18443;SDS011;9350;53.176;8.194;2023-11-21T00:46:48;19.75;;;7.10;;
18443;SDS011;9350;53.176;8.194;2023-11-21T00:49:15;18.30;;;7.18;;
18443;SDS011;9350;53.176;8.194;2023-11-21T00:51:42;17.30;;;6.10;;
18443;SDS011;9350;53.176;8.194;2023-11-21T00:54:10;12.90;;;6.78;;
18443;SDS011;9350;53.176;8.194;2023-11-21T00:56:37;19.55;;;7.43;;
18443;SDS011;9350;53.176;8.194;2023-11-21T00:59:05;22.98;;;7.50;;
18443;SDS011;9350;53.176;8.194;2023-11-21T01:01:32;17.33;;;7.03;;
18443;SDS011;9350;53.176;8.194;2023-11-21T01:03:58;15.95;;;7.15;;
18443;SDS011;9350;53.176;8.194;2023-11-21T01:06:25;21.00;;;7.38;;
18443;SDS011;9350;53.176;8.194;2023-11-21T01:08:52;17.88;;;7.72;;
18443;SDS011;9350;53.176;8.194;2023-11-21T01:11:20;23.38;;;8.38;;
18443;SDS011;9350;53.176;8.194;2023-11-21T01:13:47;22.02;;;8.48;;
18443;SDS011;9350;53.176;8.194;2023-11-21T01:16:14;28.55;;;8.88;;
18443;SDS011;9350;53.176;8.194;2023-11-21T01:18:40;28.15;;;9.00;;
18443;SDS011;9350;53.176;8.194;2023-11-21T01:21:07;30.05;;;9.80;;
18443;SDS011;9350;53.176;8.194;2023-11-21T01:23:34;32.65;;;10.32;;
18443;SDS011;9350;53.176;8.194;2023-11-21T01:26:01;30.05;;;10.73;;
18443;SDS011;9350;53.176;8.194;2023-11-21T01:28:29;27.90;;;11.00;;
18443;SDS011;9350;53.176;8.194;2023-11-21T01:30:56;33.25;;;10.70;;
18443;SDS011;9350;53.176;8.194;2023-11-21T01:33:23;28.88;;;11.32;;
18443;SDS011;9350;53.176;8.194;2023-11-21T01:35:50;30.05;;;10.77;;
18443;SDS011;9350;53.176;8.194;2023-11-21T01:38:19;30.58;;;9.90;;
18443;SDS011;9350;53.176;8.194;2023-11-21T01:40:47;24.30;;;8.85;;
18443;SDS011;9350;53.176;8.194;2023-11-21T01:43:14;25.08;;;9.55;;
18443;SDS011;9350;53.176;8.194;2023-11-21T01:45:43;32.58;;;10.15;;
18443;SDS011;9350;53.176;8.194;2023-11-21T01:48:10;25.65;;;9.32;;
18443;SDS011;9350;53.176;8.194;2023-11-21T01:50:37;21.50;;;8.65;;
18443;SDS011;9350;53.176;8.194;2023-11-21T01:53:04;21.98;;;8.93;;
18443;SDS011;9350;53.176;8.194;2023-11-21T01:55:31;24.25;;;9.38;;
18443;SDS011;9350;53.176;8.194;2023-11-21T01:57:59;25.23;;;8.90;;
18443;SDS011;9350;53.176;8.194;2023-11-21T02:00:26;25.33;;;8.48;;
18443;SDS011;9350;53.176;8.194;2023-11-21T02:02:55;25.67;;;8.68;;
18443;SDS011;9350;53.176;8.194;2023-11-21T02:05:22;24.05;;;7.90;;
18443;SDS011;9350;53.176;8.194;2023-11-21T02:07:50;24.95;;;9.43;;
18443;SDS011;9350;53.176;8.194;2023-11-21T02:10:17;24.10;;;9.07;;
18443;SDS011;9350;53.176;8.194;2023-11-21T02:12:47;25.23;;;9.65;;
18443;SDS011;9350;53.176;8.194;2023-11-21T02:15:15;30.40;;;9.88;;
18443;SDS011;9350;53.176;8.194;2023-11-21T02:17:45;21.52;;;8.75;;
18443;SDS011;9350;53.176;8.194;2023-11-21T02:20:13;32.55;;;9.85;;
18443;SDS011;9350;53.176;8.194;2023-11-21T02:22:40;29.05;;;9.40;;
18443;SDS011;9350;53.176;8.194;2023-11-21T02:25:09;29.63;;;9.02;;
18443;SDS011;9350;53.176;8.194;2023-11-21T02:27:36;22.42;;;8.80;;
18443;SDS011;9350;53.176;8.194;2023-11-21T02:30:03;31.08;;;8.52;;
18443;SDS011;9350;53.176;8.194;2023-11-21T02:32:32;23.10;;;8.75;;
18443;SDS011;9350;53.176;8.194;2023-11-21T02:34:59;28.27;;;8.75;;
18443;SDS011;9350;53.176;8.194;2023-11-21T02:37:32;23.00;;;8.70;;
18443;SDS011;9350;53.176;8.194;2023-11-21T02:40:00;24.02;;;9.10;;
18443;SDS011;9350;53.176;8.194;2023-11-21T02:42:30;28.45;;;8.50;;
18443;SDS011;9350;53.176;8.194;2023-11-21T02:44:57;18.35;;;8.25;;
18443;SDS011;9350;53.176;8.194;2023-11-21T02:47:23;21.95;;;7.70;;
18443;SDS011;9350;53.176;8.194;2023-11-21T02:49:50;20.75;;;7.88;;
18443;SDS011;9350;53.176;8.194;2023-11-21T02:52:17;25.58;;;8.75;;
18443;SDS011;9350;53.176;8.194;2023-11-21T02:54:44;21.27;;;7.82;;
18443;SDS011;9350;53.176;8.194;2023-11-21T02:57:11;28.42;;;8.52;;
18443;SDS011;9350;53.176;8.194;2023-11-21T02:59:39;23.50;;;8.05;;
18443;SDS011;9350;53.176;8.194;2023-11-21T03:02:06;22.08;;;7.93;;
18443;SDS011;9350;53.176;8.194;2023-11-21T03:04:33;30.27;;;8.20;;
18443;SDS011;9350;53.176;8.194;2023-11-21T03:07:00;27.55;;;8.75;;
18443;SDS011;9350;53.176;8.194;2023-11-21T03:09:27;28.77;;;8.50;;
18443;SDS011;9350;53.176;8.194;2023-11-21T03:11:53;25.58;;;8.45;;
18443;SDS011;9350;53.176;8.194;2023-11-21T03:14:20;24.30;;;8.50;;
18443;SDS011;9350;53.176;8.194;2023-11-21T03:16:48;23.55;;;9.10;;
18443;SDS011;9350;53.176;8.194;2023-11-21T03:19:15;26.08;;;9.95;;
18443;SDS011;9350;53.176;8.194;2023-11-21T03:21:42;26.95;;;10.25;;
18443;SDS011;9350;53.176;8.194;2023-11-21T03:24:08;26.90;;;10.05;;
18443;SDS011;9350;53.176;8.194;2023-11-21T03:26:35;30.77;;;10.57;;
18443;SDS011;9350;53.176;8.194;2023-11-21T03:29:03;23.63;;;9.60;;
18443;SDS011;9350;53.176;8.194;2023-11-21T03:31:30;29.85;;;10.25;;
18443;SDS011;9350;53.176;8.194;2023-11-21T03:33:58;21.33;;;10.23;;
18443;SDS011;9350;53.176;8.194;2023-11-21T03:36:25;26.23;;;10.27;;
18443;SDS011;9350;53.176;8.194;2023-11-21T03:38:51;23.70;;;10.63;;
18443;SDS011;9350;53.176;8.194;2023-11-21T03:41:18;21.55;;;10.13;;
18443;SDS011;9350;53.176;8.194;2023-11-21T03:43:45;28.42;;;10.77;;
18443;SDS011;9350;53.176;8.194;2023-11-21T03:46:12;29.63;;;10.85;;
18443;SDS011;9350;53.176;8.194;2023-11-21T03:48:38;27.23;;;10.98;;
18443;SDS011;9350;53.176;8.194;2023-11-21T03:51:06;22.85;;;10.77;;
18443;SDS011;9350;53.176;8.194;2023-11-21T03:53:33;28.80;;;10.98;;
18443;SDS011;9350;53.176;8.194;2023-11-21T03:56:01;22.27;;;10.35;;
18443;SDS011;9350;53.176;8.194;2023-11-21T03:58:28;29.08;;;10.63;;
18443;SDS011;9350;53.176;8.194;2023-11-21T04:00:55;25.50;;;11.73;;
18443;SDS011;9350;53.176;8.194;2023-11-21T04:03:22;28.92;;;12.32;;
18443;SDS011;9350;53.176;8.194;2023-11-21T04:05:48;24.67;;;11.30;;
18443;SDS011;9350;53.176;8.194;2023-11-21T04:08:16;28.67;;;11.18;;
18443;SDS011;9350;53.176;8.194;2023-11-21T04:10:43;26.42;;;10.98;;
18443;SDS011;9350;53.176;8.194;2023-11-21T04:13:10;25.20;;;10.88;;
18443;SDS011;9350;53.176;8.194;2023-11-21T04:15:36;29.95;;;12.07;;
18443;SDS011;9350;53.176;8.194;2023-11-21T04:18:03;31.35;;;12.73;;
18443;SDS011;9350;53.176;8.194;2023-11-21T04:20:30;30.27;;;13.15;;
18443;SDS011;9350;53.176;8.194;2023-11-21T04:22:57;29.27;;;13.30;;
18443;SDS011;9350;53.176;8.194;2023-11-21T04:25:25;30.55;;;14.32;;
18443;SDS011;9350;53.176;8.194;2023-11-21T04:27:52;31.50;;;14.13;;
18443;SDS011;9350;53.176;8.194;2023-11-21T04:30:19;35.97;;;14.07;;
18443;SDS011;9350;53.176;8.194;2023-11-21T04:32:45;36.63;;;14.00;;
18443;SDS011;9350;53.176;8.194;2023-11-21T04:35:12;32.10;;;13.43;;
18443;SDS011;9350;53.176;8.194;2023-11-21T04:37:40;32.55;;;14.07;;
18443;SDS011;9350;53.176;8.194;2023-11-21T04:40:07;34.65;;;15.18;;
18443;SDS011;9350;53.176;8.194;2023-11-21T04:42:36;32.83;;;14.32;;
18443;SDS011;9350;53.176;8.194;2023-11-21T04:45:03;30.58;;;14.60;;
18443;SDS011;9350;53.176;8.194;2023-11-21T04:47:33;31.13;;;13.95;;
18443;SDS011;9350;53.176;8.194;2023-11-21T04:50:00;37.47;;;15.18;;
18443;SDS011;9350;53.176;8.194;2023-11-21T04:52:28;35.67;;;15.40;;
18443;SDS011;9350;53.176;8.194;2023-11-21T04:54:55;33.03;;;15.30;;
18443;SDS011;9350;53.176;8.194;2023-11-21T04:57:23;35.70;;;15.88;;
18443;SDS011;9350;53.176;8.194;2023-11-21T04:59:51;31.40;;;15.38;;
18443;SDS011;9350;53.176;8.194;2023-11-21T05:02:18;34.78;;;15.57;;
18443;SDS011;9350;53.176;8.194;2023-11-21T05:04:44;33.72;;;16.13;;
18443;SDS011;9350;53.176;8.194;2023-11-21T05:07:11;29.80;;;16.25;;
18443;SDS011;9350;53.176;8.194;2023-11-21T05:09:40;33.55;;;15.95;;
18443;SDS011;9350;53.176;8.194;2023-11-21T05:12:09;35.63;;;15.13;;
18443;SDS011;9350;53.176;8.194;2023-11-21T05:14:35;30.13;;;15.30;;
18443;SDS011;9350;53.176;8.194;2023-11-21T05:17:04;32.15;;;16.83;;
18443;SDS011;9350;53.176;8.194;2023-11-21T05:19:30;30.02;;;15.07;;
18443;SDS011;9350;53.176;8.194;2023-11-21T05:21:57;30.67;;;15.25;;
18443;SDS011;9350;53.176;8.194;2023-11-21T05:24:25;29.60;;;15.70;;
18443;SDS011;9350;53.176;8.194;2023-11-21T05:26:52;27.23;;;15.07;;
18443;SDS011;9350;53.176;8.194;2023-11-21T05:29:18;28.92;;;14.80;;
18443;SDS011;9350;53.176;8.194;2023-11-21T05:31:45;29.30;;;14.93;;
18443;SDS011;9350;53.176;8.194;2023-11-21T05:34:13;26.70;;;14.20;;
18443;SDS011;9350;53.176;8.194;2023-11-21T05:36:42;24.48;;;13.05;;
18443;SDS011;9350;53.176;8.194;2023-11-21T05:39:09;28.85;;;14.07;;
18443;SDS011;9350;53.176;8.194;2023-11-21T05:41:36;31.20;;;13.98;;
18443;SDS011;9350;53.176;8.194;2023-11-21T05:44:03;25.20;;;12.80;;
18443;SDS011;9350;53.176;8.194;2023-11-21T05:46:30;23.73;;;11.98;;
18443;SDS011;9350;53.176;8.194;2023-11-21T05:48:57;23.60;;;11.25;;
18443;SDS011;9350;53.176;8.194;2023-11-21T05:51:25;26.92;;;12.32;;
18443;SDS011;9350;53.176;8.194;2023-11-21T05:53:54;23.55;;;12.10;;
18443;SDS011;9350;53.176;8.194;2023-11-21T05:56:21;25.38;;;12.18;;
18443;SDS011;9350;53.176;8.194;2023-11-21T05:58:48;22.70;;;11.23;;
18443;SDS011;9350;53.176;8.194;2023-11-21T06:01:15;26.30;;;11.18;;
18443;SDS011;9350;53.176;8.194;2023-11-21T06:03:42;21.92;;;11.30;;
18443;SDS011;9350;53.176;8.194;2023-11-21T06:06:08;26.20;;;11.05;;
18443;SDS011;9350;53.176;8.194;2023-11-21T06:08:36;20.45;;;11.25;;
18443;SDS011;9350;53.176;8.194;2023-11-21T06:11:03;23.67;;;11.48;;
18443;SDS011;9350;53.176;8.194;2023-11-21T06:13:30;25.58;;;11.65;;
18443;SDS011;9350;53.176;8.194;2023-11-21T06:15:57;25.00;;;12.10;;
18443;SDS011;9350;53.176;8.194;2023-11-21T06:18:23;23.27;;;12.07;;
18443;SDS011;9350;53.176;8.194;2023-11-21T06:20:50;26.83;;;12.48;;
18443;SDS011;9350;53.176;8.194;2023-11-21T06:23:18;23.92;;;12.68;;
18443;SDS011;9350;53.176;8.194;2023-11-21T06:25:46;28.80;;;12.90;;
18443;SDS011;9350;53.176;8.194;2023-11-21T06:28:13;26.45;;;12.70;;
18443;SDS011;9350;53.176;8.194;2023-11-21T06:30:42;21.00;;;10.98;;
18443;SDS011;9350;53.176;8.194;2023-11-21T06:33:09;32.47;;;11.98;;
18443;SDS011;9350;53.176;8.194;2023-11-21T06:35:36;23.33;;;12.52;;
18443;SDS011;9350;53.176;8.194;2023-11-21T06:38:03;20.02;;;10.80;;
18443;SDS011;9350;53.176;8.194;2023-11-21T06:40:29;16.90;;;10.00;;
18443;SDS011;9350;53.176;8.194;2023-11-21T06:43:00;16.42;;;9.75;;
18443;SDS011;9350;53.176;8.194;2023-11-21T06:45:26;15.65;;;8.75;;
18443;SDS011;9350;53.176;8.194;2023-11-21T06:47:53;17.40;;;8.80;;
18443;SDS011;9350;53.176;8.194;2023-11-21T06:50:20;16.73;;;8.73;;
18443;SDS011;9350;53.176;8.194;2023-11-21T06:52:47;15.32;;;8.90;;
18443;SDS011;9350;53.176;8.194;2023-11-21T06:55:13;16.88;;;9.23;;
18443;SDS011;9350;53.176;8.194;2023-11-21T06:57:41;12.27;;;8.23;;
18443;SDS011;9350;53.176;8.194;2023-11-21T07:00:10;12.88;;;8.60;;
18443;SDS011;9350;53.176;8.194;2023-11-21T07:02:37;13.75;;;8.30;;
18443;SDS011;9350;53.176;8.194;2023-11-21T07:05:04;16.20;;;8.55;;
18443;SDS011;9350;53.176;8.194;2023-11-21T07:07:31;15.70;;;8.57;;
18443;SDS011;9350;53.176;8.194;2023-11-21T07:10:00;14.32;;;8.50;;
18443;SDS011;9350;53.176;8.194;2023-11-21T07:12:28;13.60;;;7.80;;
18443;SDS011;9350;53.176;8.194;2023-11-21T07:14:55;13.30;;;8.35;;
18443;SDS011;9350;53.176;8.194;2023-11-21T07:17:23;12.68;;;8.48;;
18443;SDS011;9350;53.176;8.194;2023-11-21T07:19:49;13.10;;;8.40;;
18443;SDS011;9350;53.176;8.194;2023-11-21T07:22:16;15.85;;;8.23;;
18443;SDS011;9350;53.176;8.194;2023-11-21T07:24:47;13.07;;;8.30;;
18443;SDS011;9350;53.176;8.194;2023-11-21T07:27:14;18.40;;;8.85;;
18443;SDS011;9350;53.176;8.194;2023-11-21T07:29:41;12.45;;;8.10;;
18443;SDS011;9350;53.176;8.194;2023-11-21T07:32:07;12.18;;;8.40;;
18443;SDS011;9350;53.176;8.194;2023-11-21T07:34:35;13.05;;;8.40;;
18443;SDS011;9350;53.176;8.194;2023-11-21T07:37:02;15.25;;;8.35;;
18443;SDS011;9350;53.176;8.194;2023-11-21T07:39:29;12.10;;;7.78;;
18443;SDS011;9350;53.176;8.194;2023-11-21T07:41:56;10.85;;;7.50;;
18443;SDS011;9350;53.176;8.194;2023-11-21T07:44:23;13.55;;;8.15;;
18443;SDS011;9350;53.176;8.194;2023-11-21T07:46:49;12.15;;;7.63;;
18443;SDS011;9350;53.176;8.194;2023-11-21T07:49:16;13.10;;;8.35;;
18443;SDS011;9350;53.176;8.194;2023-11-21T07:51:46;13.60;;;8.13;;
18443;SDS011;9350;53.176;8.194;2023-11-21T07:54:13;12.90;;;7.35;;
18443;SDS011;9350;53.176;8.194;2023-11-21T07:56:41;13.13;;;7.80;;
18443;SDS011;9350;53.176;8.194;2023-11-21T07:59:07;13.02;;;7.80;;
18443;SDS011;9350;53.176;8.194;2023-11-21T08:01:34;16.63;;;8.13;;
18443;SDS011;9350;53.176;8.194;2023-11-21T08:04:01;12.93;;;7.35;;
18443;SDS011;9350;53.176;8.194;2023-11-21T08:06:28;14.60;;;8.45;;
18443;SDS011;9350;53.176;8.194;2023-11-21T08:08:57;14.43;;;7.32;;
18443;SDS011;9350;53.176;8.194;2023-11-21T08:11:24;11.57;;;7.28;;
18443;SDS011;9350;53.176;8.194;2023-11-21T08:13:51;11.50;;;7.28;;
18443;SDS011;9350;53.176;8.194;2023-11-21T08:16:18;13.25;;;7.97;;
18443;SDS011;9350;53.176;8.194;2023-11-21T08:18:45;14.82;;;7.82;;
18443;SDS011;9350;53.176;8.194;2023-11-21T08:21:12;13.45;;;7.80;;
18443;SDS011;9350;53.176;8.194;2023-11-21T08:23:39;13.45;;;7.63;;
18443;SDS011;9350;53.176;8.194;2023-11-21T08:26:07;14.10;;;8.05;;
18443;SDS011;9350;53.176;8.194;2023-11-21T08:28:33;15.77;;;8.30;;
18443;SDS011;9350;53.176;8.194;2023-11-21T08:31:00;12.93;;;8.20;;
18443;SDS011;9350;53.176;8.194;2023-11-21T08:33:27;11.38;;;7.75;;
18443;SDS011;9350;53.176;8.194;2023-11-21T08:35:54;13.38;;;8.50;;
18443;SDS011;9350;53.176;8.194;2023-11-21T08:38:21;12.23;;;7.80;;
18443;SDS011;9350;53.176;8.194;2023-11-21T08:40:47;12.00;;;7.97;;
18443;SDS011;9350;53.176;8.194;2023-11-21T08:43:15;11.93;;;7.30;;
18443;SDS011;9350;53.176;8.194;2023-11-21T08:45:44;13.10;;;7.85;;
18443;SDS011;9350;53.176;8.194;2023-11-21T08:48:11;16.63;;;8.77;;
18443;SDS011;9350;53.176;8.194;2023-11-21T08:50:38;12.82;;;7.85;;
18443;SDS011;9350;53.176;8.194;2023-11-21T08:53:05;15.07;;;8.60;;
18443;SDS011;9350;53.176;8.194;2023-11-21T08:55:31;13.95;;;8.25;;
18443;SDS011;9350;53.176;8.194;2023-11-21T08:58:02;12.70;;;7.95;;
18443;SDS011;9350;53.176;8.194;2023-11-21T09:00:31;15.43;;;7.75;;
18443;SDS011;9350;53.176;8.194;2023-11-21T09:02:58;17.75;;;8.35;;
18443;SDS011;9350;53.176;8.194;2023-11-21T09:05:25;12.23;;;8.40;;
18443;SDS011;9350;53.176;8.194;2023-11-21T09:07:51;11.88;;;8.20;;
18443;SDS011;9350;53.176;8.194;2023-11-21T09:10:18;13.63;;;8.20;;
18443;SDS011;9350;53.176;8.194;2023-11-21T09:12:45;14.65;;;8.30;;
18443;SDS011;9350;53.176;8.194;2023-11-21T09:15:12;15.07;;;7.88;;
18443;SDS011;9350;53.176;8.194;2023-11-21T09:17:41;11.65;;;7.38;;
18443;SDS011;9350;53.176;8.194;2023-11-21T09:20:08;13.55;;;8.23;;
18443;SDS011;9350;53.176;8.194;2023-11-21T09:22:36;13.75;;;7.75;;
18443;SDS011;9350;53.176;8.194;2023-11-21T09:25:03;10.02;;;7.38;;
18443;SDS011;9350;53.176;8.194;2023-11-21T09:27:30;13.95;;;7.47;;
18443;SDS011;9350;53.176;8.194;2023-11-21T09:29:57;12.40;;;8.30;;
18443;SDS011;9350;53.176;8.194;2023-11-21T09:32:24;11.93;;;7.38;;
18443;SDS011;9350;53.176;8.194;2023-11-21T09:34:52;11.73;;;8.20;;
18443;SDS011;9350;53.176;8.194;2023-11-21T09:37:20;14.50;;;8.43;;
18443;SDS011;9350;53.176;8.194;2023-11-21T09:39:47;11.93;;;7.57;;
18443;SDS011;9350;53.176;8.194;2023-11-21T09:42:15;14.35;;;8.40;;
18443;SDS011;9350;53.176;8.194;2023-11-21T09:44:51;9.82;;;7.18;;
18443;SDS011;9350;53.176;8.194;2023-11-21T09:47:26;11.40;;;7.70;;
18443;SDS011;9350;53.176;8.194;2023-11-21T09:49:55;11.18;;;7.47;;
18443;SDS011;9350;53.176;8.194;2023-11-21T09:52:26;14.48;;;7.57;;
18443;SDS011;9350;53.176;8.194;2023-11-21T09:54:54;12.00;;;7.93;;
18443;SDS011;9350;53.176;8.194;2023-11-21T09:57:23;14.55;;;7.93;;
18443;SDS011;9350;53.176;8.194;2023-11-21T09:59:51;11.32;;;7.50;;
18443;SDS011;9350;53.176;8.194;2023-11-21T10:02:20;11.27;;;7.45;;
18443;SDS011;9350;53.176;8.194;2023-11-21T10:04:51;13.18;;;7.72;;
18443;SDS011;9350;53.176;8.194;2023-11-21T10:07:19;14.02;;;7.63;;
18443;SDS011;9350;53.176;8.194;2023-11-21T10:09:47;11.40;;;7.45;;
18443;SDS011;9350;53.176;8.194;2023-11-21T10:12:14;9.65;;;6.85;;
18443;SDS011;9350;53.176;8.194;2023-11-21T10:14:41;13.05;;;8.48;;
18443;SDS011;9350;53.176;8.194;2023-11-21T10:17:10;10.50;;;6.97;;
18443;SDS011;9350;53.176;8.194;2023-11-21T10:19:41;12.32;;;7.57;;
18443;SDS011;9350;53.176;8.194;2023-11-21T10:22:08;11.02;;;7.03;;
18443;SDS011;9350;53.176;8.194;2023-11-21T10:24:36;9.13;;;6.82;;
18443;SDS011;9350;53.176;8.194;2023-11-21T10:27:04;10.30;;;6.88;;
18443;SDS011;9350;53.176;8.194;2023-11-21T10:29:30;11.38;;;6.90;;
18443;SDS011;9350;53.176;8.194;2023-11-21T10:32:01;10.73;;;7.00;;
18443;SDS011;9350;53.176;8.194;2023-11-21T10:34:28;12.07;;;7.22;;
18443;SDS011;9350;53.176;8.194;2023-11-21T10:36:55;13.75;;;7.25;;
18443;SDS011;9350;53.176;8.194;2023-11-21T10:39:23;12.20;;;7.35;;
18443;SDS011;9350;53.176;8.194;2023-11-21T10:41:54;10.52;;;7.05;;
18443;SDS011;9350;53.176;8.194;2023-11-21T10:44:21;11.32;;;6.82;;
18443;SDS011;9350;53.176;8.194;2023-11-21T10:46:49;12.05;;;6.97;;
18443;SDS011;9350;53.176;8.194;2023-11-21T10:49:17;12.48;;;7.20;;
18443;SDS011;9350;53.176;8.194;2023-11-21T10:51:44;14.13;;;8.38;;
18443;SDS011;9350;53.176;8.194;2023-11-21T10:54:16;12.30;;;7.72;;
18443;SDS011;9350;53.176;8.194;2023-11-21T10:56:44;12.82;;;6.93;;
18443;SDS011;9350;53.176;8.194;2023-11-21T10:59:14;12.20;;;7.95;;
18443;SDS011;9350;53.176;8.194;2023-11-21T11:01:41;12.32;;;8.52;;
18443;SDS011;9350;53.176;8.194;2023-11-21T11:04:11;11.43;;;7.40;;
18443;SDS011;9350;53.176;8.194;2023-11-21T11:06:42;12.23;;;7.35;;
18443;SDS011;9350;53.176;8.194;2023-11-21T11:09:10;15.57;;;7.72;;
18443;SDS011;9350;53.176;8.194;2023-11-21T11:11:40;11.27;;;7.18;;
18443;SDS011;9350;53.176;8.194;2023-11-21T11:14:09;13.35;;;8.00;;
18443;SDS011;9350;53.176;8.194;2023-11-21T11:16:40;11.50;;;7.65;;
18443;SDS011;9350;53.176;8.194;2023-11-21T11:19:08;12.43;;;6.78;;
18443;SDS011;9350;53.176;8.194;2023-11-21T11:21:38;11.13;;;7.07;;
18443;SDS011;9350;53.176;8.194;2023-11-21T11:24:36;15.27;;;7.97;;
18443;SDS011;9350;53.176;8.194;2023-11-21T11:27:16;12.70;;;7.07;;
18443;SDS011;9350;53.176;8.194;2023-11-21T11:29:52;11.90;;;7.25;;
18443;SDS011;9350;53.176;8.194;2023-11-21T11:32:30;12.13;;;7.55;;
18443;SDS011;9350;53.176;8.194;2023-11-21T11:35:07;12.82;;;7.22;;
18443;SDS011;9350;53.176;8.194;2023-11-21T11:37:41;10.52;;;6.78;;
18443;SDS011;9350;53.176;8.194;2023-11-21T11:40:10;11.80;;;6.85;;
18443;SDS011;9350;53.176;8.194;2023-11-21T11:42:37;11.45;;;6.88;;
18443;SDS011;9350;53.176;8.194;2023-11-21T11:45:17;9.77;;;6.78;;
18443;SDS011;9350;53.176;8.194;2023-11-21T11:47:45;9.63;;;6.70;;
18443;SDS011;9350;53.176;8.194;2023-11-21T11:50:14;12.70;;;7.43;;
18443;SDS011;9350;53.176;8.194;2023-11-21T11:52:42;8.88;;;6.10;;
18443;SDS011;9350;53.176;8.194;2023-11-21T11:55:10;9.88;;;6.13;;
18443;SDS011;9350;53.176;8.194;2023-11-21T11:57:38;10.45;;;6.38;;
18443;SDS011;9350;53.176;8.194;2023-11-21T12:00:09;9.45;;;6.30;;
18443;SDS011;9350;53.176;8.194;2023-11-21T12:02:41;10.20;;;6.22;;
18443;SDS011;9350;53.176;8.194;2023-11-21T12:05:12;8.15;;;6.00;;
18443;SDS011;9350;53.176;8.194;2023-11-21T12:07:41;9.77;;;6.68;;
18443;SDS011;9350;53.176;8.194;2023-11-21T12:10:11;10.07;;;5.38;;
18443;SDS011;9350;53.176;8.194;2023-11-21T12:12:41;7.55;;;5.78;;
18443;SDS011;9350;53.176;8.194;2023-11-21T12:15:09;7.63;;;5.13;;
18443;SDS011;9350;53.176;8.194;2023-11-21T12:17:37;5.22;;;4.53;;
18443;SDS011;9350;53.176;8.194;2023-11-21T12:20:04;7.68;;;4.88;;
18443;SDS011;9350;53.176;8.194;2023-11-21T12:22:40;8.18;;;4.13;;
18443;SDS011;9350;53.176;8.194;2023-11-21T12:25:08;6.32;;;3.83;;
18443;SDS011;9350;53.176;8.194;2023-11-21T12:27:40;5.32;;;3.80;;
18443;SDS011;9350;53.176;8.194;2023-11-21T12:30:07;4.80;;;3.50;;
18443;SDS011;9350;53.176;8.194;2023-11-21T12:32:38;4.13;;;3.35;;
18443;SDS011;9350;53.176;8.194;2023-11-21T12:35:05;6.10;;;3.80;;
18443;SDS011;9350;53.176;8.194;2023-11-21T12:37:32;6.25;;;3.35;;
18443;SDS011;9350;53.176;8.194;2023-11-21T12:40:00;6.32;;;3.10;;
18443;SDS011;9350;53.176;8.194;2023-11-21T12:42:27;10.27;;;3.80;;
18443;SDS011;9350;53.176;8.194;2023-11-21T12:45:08;7.13;;;4.15;;
18443;SDS011;9350;53.176;8.194;2023-11-21T12:47:40;6.30;;;4.03;;
18443;SDS011;9350;53.176;8.194;2023-11-21T12:50:08;5.38;;;4.18;;
18443;SDS011;9350;53.176;8.194;2023-11-21T12:52:40;7.63;;;4.45;;
18443;SDS011;9350;53.176;8.194;2023-11-21T12:55:17;7.13;;;4.00;;
18443;SDS011;9350;53.176;8.194;2023-11-21T12:57:47;5.90;;;4.00;;
18443;SDS011;9350;53.176;8.194;2023-11-21T13:00:16;7.07;;;4.57;;
18443;SDS011;9350;53.176;8.194;2023-11-21T13:02:52;6.57;;;4.18;;
18443;SDS011;9350;53.176;8.194;2023-11-21T13:05:28;6.95;;;4.63;;
18443;SDS011;9350;53.176;8.194;2023-11-21T13:07:56;6.75;;;4.80;;
18443;SDS011;9350;53.176;8.194;2023-11-21T13:10:26;8.77;;;4.57;;
18443;SDS011;9350;53.176;8.194;2023-11-21T13:12:56;7.93;;;4.25;;
18443;SDS011;9350;53.176;8.194;2023-11-21T13:15:25;5.97;;;4.43;;
18443;SDS011;9350;53.176;8.194;2023-11-21T13:17:52;6.22;;;4.00;;
18443;SDS011;9350;53.176;8.194;2023-11-21T13:20:21;4.93;;;4.28;;
18443;SDS011;9350;53.176;8.194;2023-11-21T13:22:49;8.73;;;4.60;;
18443;SDS011;9350;53.176;8.194;2023-11-21T13:25:19;5.55;;;3.85;;
18443;SDS011;9350;53.176;8.194;2023-11-21T13:27:47;10.73;;;4.20;;
18443;SDS011;9350;53.176;8.194;2023-11-21T13:30:15;4.50;;;4.10;;
18443;SDS011;9350;53.176;8.194;2023-11-21T13:32:43;5.50;;;4.03;;
18443;SDS011;9350;53.176;8.194;2023-11-21T13:35:11;5.20;;;4.13;;
18443;SDS011;9350;53.176;8.194;2023-11-21T13:37:48;8.70;;;3.90;;
18443;SDS011;9350;53.176;8.194;2023-11-21T13:40:21;6.15;;;4.13;;
18443;SDS011;9350;53.176;8.194;2023-11-21T13:42:53;8.07;;;4.30;;
18443;SDS011;9350;53.176;8.194;2023-11-21T13:45:21;6.00;;;4.63;;
18443;SDS011;9350;53.176;8.194;2023-11-21T13:47:48;4.70;;;4.20;;
18443;SDS011;9350;53.176;8.194;2023-11-21T13:50:17;7.03;;;4.80;;
18443;SDS011;9350;53.176;8.194;2023-11-21T13:52:48;7.65;;;4.70;;
18443;SDS011;9350;53.176;8.194;2023-11-21T13:55:16;7.85;;;4.72;;
18443;SDS011;9350;53.176;8.194;2023-11-21T13:57:42;7.30;;;4.32;;
18443;SDS011;9350;53.176;8.194;2023-11-21T14:00:14;7.10;;;4.57;;
18443;SDS011;9350;53.176;8.194;2023-11-21T14:03:01;7.07;;;4.60;;
18443;SDS011;9350;53.176;8.194;2023-11-21T14:05:33;5.72;;;4.05;;
18443;SDS011;9350;53.176;8.194;2023-11-21T14:08:00;6.75;;;3.85;;
18443;SDS011;9350;53.176;8.194;2023-11-21T14:10:29;7.28;;;3.97;;
18443;SDS011;9350;53.176;8.194;2023-11-21T14:13:05;8.63;;;4.90;;
18443;SDS011;9350;53.176;8.194;2023-11-21T14:15:33;5.70;;;4.25;;
18443;SDS011;9350;53.176;8.194;2023-11-21T14:18:03;5.78;;;3.97;;
18443;SDS011;9350;53.176;8.194;2023-11-21T14:20:33;7.05;;;4.13;;
18443;SDS011;9350;53.176;8.194;2023-11-21T14:23:01;7.15;;;4.10;;
18443;SDS011;9350;53.176;8.194;2023-11-21T14:25:28;6.80;;;4.20;;
18443;SDS011;9350;53.176;8.194;2023-11-21T14:27:54;6.88;;;4.10;;
18443;SDS011;9350;53.176;8.194;2023-11-21T14:30:22;9.20;;;4.20;;
18443;SDS011;9350;53.176;8.194;2023-11-21T14:32:51;5.75;;;4.10;;
18443;SDS011;9350;53.176;8.194;2023-11-21T14:35:18;8.85;;;4.40;;
18443;SDS011;9350;53.176;8.194;2023-11-21T14:37:45;6.88;;;4.60;;
18443;SDS011;9350;53.176;8.194;2023-11-21T14:40:12;7.60;;;4.55;;
18443;SDS011;9350;53.176;8.194;2023-11-21T14:42:40;6.35;;;4.97;;
18443;SDS011;9350;53.176;8.194;2023-11-21T14:45:08;5.93;;;4.55;;
18443;SDS011;9350;53.176;8.194;2023-11-21T14:47:37;6.05;;;4.82;;
18443;SDS011;9350;53.176;8.194;2023-11-21T14:50:10;6.40;;;4.53;;
18443;SDS011;9350;53.176;8.194;2023-11-21T14:53:04;5.70;;;4.45;;